Argyle's Hourly Summary for Monday, July 9, 2018
Hour Temp
(f)
RH
(%)
Solar Rad.
(MJ/m2)
Rainfall
(in)
Wind
(mph)
7/9/2018 12:00 AM 82 62 0 0 3.11
7/9/2018 1:00 AM 80 62 0 0 3.02
7/9/2018 2:00 AM 79 66 0 0 1.58
7/9/2018 3:00 AM 78 71 0 0 2.34
7/9/2018 4:00 AM 77 72 0 0 1.58
7/9/2018 5:00 AM 77 76 0 0 1.71
7/9/2018 6:00 AM 77 80 0 0 1.27
7/9/2018 7:00 AM 76 81 0.03 0 0.27
7/9/2018 8:00 AM 78 72 0.34 0 0.14
7/9/2018 9:00 AM 81 67 1.11 0 1.68
7/9/2018 10:00 AM 84 54 1.75 0 1.4
7/9/2018 11:00 AM 87 51 2.09 0 2.36
7/9/2018 12:00 PM 88 51 2.51 0 3.75
7/9/2018 1:00 PM 89 44 2.07 0 3.59
7/9/2018 2:00 PM 90 44 1.83 0 5.11
7/9/2018 3:00 PM 89 42 2.24 0 6.25
7/9/2018 4:00 PM 90 44 3.18 0 8.54
7/9/2018 5:00 PM 89 48 2.48 0 8.58
7/9/2018 6:00 PM 90 46 1.95 0 6.58
7/9/2018 7:00 PM 88 49 0.47 0 5.71
7/9/2018 8:00 PM 87 53 0.2 0 5.33
7/9/2018 9:00 PM 84 61 0.08 0 5.49
7/9/2018 10:00 PM 81 70 0 0 4.19
7/9/2018 11:00 PM 81 72 0 0 2.5
Data Summary 83 59 22.33 0.00 3.59